createdAt,value
2018-02-17T00:01:17.317Z,15.63
2018-02-17T00:03:45.380Z,17.73
2018-02-17T00:06:13.433Z,16.48
2018-02-17T00:08:41.506Z,17.07
2018-02-17T00:11:10.350Z,16.67
2018-02-17T00:13:38.431Z,17.73
2018-02-17T00:16:06.830Z,21.17
2018-02-17T00:18:34.902Z,19.47
2018-02-17T00:21:03.002Z,23.35
2018-02-17T00:23:31.078Z,25.03
2018-02-17T00:25:59.142Z,22.05
2018-02-17T00:28:27.279Z,17.40
2018-02-17T00:30:55.403Z,24.47
2018-02-17T00:33:23.573Z,17.23
2018-02-17T00:35:52.472Z,25.23
2018-02-17T00:38:20.562Z,18.75
2018-02-17T00:40:48.621Z,19.60
2018-02-17T00:43:16.701Z,27.10
2018-02-17T00:45:44.766Z,26.70
2018-02-17T00:48:12.843Z,19.40
2018-02-17T00:50:40.909Z,24.10
2018-02-17T00:53:08.978Z,31.23
2018-02-17T00:55:37.977Z,24.65
2018-02-17T00:58:07.173Z,29.30
2018-02-17T01:00:35.270Z,30.17
2018-02-17T01:03:03.374Z,26.07
2018-02-17T01:05:31.448Z,28.67
2018-02-17T01:07:59.832Z,27.53
2018-02-17T01:10:27.910Z,24.70
2018-02-17T01:12:56.094Z,24.93
2018-02-17T01:15:24.170Z,25.83
2018-02-17T01:17:53.037Z,22.00
2018-02-17T01:20:21.107Z,20.58
2018-02-17T01:22:49.225Z,20.00
2018-02-17T01:25:17.398Z,21.40
2018-02-17T01:27:45.473Z,25.30
2018-02-17T01:30:13.551Z,20.73
2018-02-17T01:32:41.639Z,21.37
2018-02-17T01:35:09.699Z,20.40
2018-02-17T01:37:37.779Z,20.70
2018-02-17T01:40:05.864Z,20.62
2018-02-17T01:42:33.938Z,19.67
2018-02-17T01:45:01.999Z,19.75
2018-02-17T01:47:30.090Z,19.17
2018-02-17T01:49:58.162Z,18.17
2018-02-17T01:52:26.351Z,17.37
2018-02-17T01:54:54.402Z,25.57
2018-02-17T01:57:22.469Z,19.45
2018-02-17T01:59:50.578Z,19.37
2018-02-17T02:02:18.699Z,19.27
2018-02-17T02:04:47.534Z,16.58
2018-02-17T02:07:15.602Z,22.67
2018-02-17T02:09:43.666Z,17.17
2018-02-17T02:12:11.802Z,19.33
2018-02-17T02:14:39.878Z,18.70
2018-02-17T02:17:08.057Z,16.98
2018-02-17T02:19:36.126Z,16.47
2018-02-17T02:22:04.218Z,18.05
2018-02-17T02:24:32.370Z,14.43
2018-02-17T02:27:00.438Z,16.70
2018-02-17T02:29:28.537Z,17.20
2018-02-17T02:31:56.610Z,17.70
2018-02-17T02:34:24.693Z,16.10
2018-02-17T02:36:52.763Z,18.33
2018-02-17T02:39:20.935Z,15.48
2018-02-17T02:41:49.107Z,16.23
2018-02-17T02:44:17.175Z,18.20
2018-02-17T02:46:45.261Z,18.67
2018-02-17T02:49:13.331Z,19.27
2018-02-17T02:51:41.425Z,16.67
2018-02-17T02:54:09.478Z,17.17
2018-02-17T02:56:38.411Z,20.37
2018-02-17T02:59:06.467Z,17.50
2018-02-17T03:01:34.532Z,18.20
2018-02-17T03:04:02.597Z,17.35
2018-02-17T03:06:30.658Z,21.47
2018-02-17T03:08:58.773Z,18.52
2018-02-17T03:11:26.838Z,19.60
2018-02-17T03:13:54.895Z,16.73
2018-02-17T03:16:22.980Z,18.60
2018-02-17T03:18:51.075Z,19.60
2018-02-17T03:21:19.144Z,20.10
2018-02-17T03:23:47.198Z,18.57
2018-02-17T03:26:15.270Z,21.23
2018-02-17T03:28:43.329Z,19.77
2018-02-17T03:31:11.388Z,19.08
2018-02-17T03:33:40.214Z,20.67
2018-02-17T03:36:08.834Z,19.87
2018-02-17T03:38:36.914Z,18.50
2018-02-17T03:41:04.970Z,18.65
2018-02-17T03:43:33.038Z,21.10
2018-02-17T03:46:01.093Z,18.60
2018-02-17T03:48:29.923Z,17.97
2018-02-17T03:50:58.742Z,21.87
2018-02-17T03:53:28.738Z,16.55
2018-02-17T03:55:56.794Z,19.23
2018-02-17T03:58:24.907Z,15.82
2018-02-17T04:00:52.966Z,17.90
2018-02-17T04:03:21.059Z,18.33
2018-02-17T04:05:49.126Z,17.77
2018-02-17T04:08:17.191Z,16.48
2018-02-17T04:10:45.246Z,17.90
2018-02-17T04:13:13.316Z,17.30
2018-02-17T04:15:41.362Z,17.75
2018-02-17T04:18:10.201Z,16.17
2018-02-17T04:20:39.374Z,19.07
2018-02-17T04:23:07.505Z,18.25
2018-02-17T04:25:35.566Z,17.87
2018-02-17T04:28:03.625Z,17.45
2018-02-17T04:30:31.696Z,17.17
2018-02-17T04:32:59.797Z,15.88
2018-02-17T04:35:27.878Z,17.10
2018-02-17T04:37:55.943Z,15.77
2018-02-17T04:40:29.422Z,14.57
2018-02-17T04:43:18.239Z,15.20
2018-02-17T04:45:56.962Z,15.80
2018-02-17T04:48:28.190Z,15.00
2018-02-17T04:51:08.490Z,16.10
2018-02-17T04:53:40.492Z,14.47
2018-02-17T04:56:25.355Z,17.00
2018-02-17T04:58:58.793Z,14.80
2018-02-17T05:01:33.892Z,16.00
2018-02-17T05:04:17.684Z,15.77
2018-02-17T05:06:51.695Z,15.77
2018-02-17T05:09:19.747Z,17.02
2018-02-17T05:11:48.565Z,16.15
2018-02-17T05:17:24.662Z,16.30
2018-02-17T05:19:52.741Z,18.60
2018-02-17T05:25:38.837Z,17.40
2018-02-17T05:28:06.898Z,15.53
2018-02-17T05:30:35.607Z,18.77
2018-02-17T05:33:09.258Z,17.17
2018-02-17T05:35:41.813Z,15.57
2018-02-17T05:38:10.261Z,16.10
2018-02-17T05:40:38.794Z,17.10
2018-02-17T05:43:07.615Z,16.07
2018-02-17T05:48:45.297Z,17.10
2018-02-17T05:51:13.377Z,19.00
2018-02-17T05:53:41.453Z,21.03
2018-02-17T05:56:10.512Z,18.34
2018-02-17T05:58:38.574Z,17.60
2018-02-17T06:01:06.628Z,19.85
2018-02-17T06:03:34.726Z,20.40
2018-02-17T06:06:02.778Z,17.85
2018-02-17T06:08:31.602Z,20.23
2018-02-17T06:10:59.664Z,18.93
2018-02-17T06:13:27.735Z,18.93
2018-02-17T06:15:55.819Z,20.57
2018-02-17T06:18:23.890Z,22.97
2018-02-17T06:20:52.475Z,21.03
2018-02-17T06:23:20.534Z,19.92
2018-02-17T06:25:48.617Z,22.60
2018-02-17T06:28:16.691Z,20.40
2018-02-17T06:30:44.767Z,22.10
2018-02-17T06:33:12.837Z,20.30
2018-02-17T06:35:42.340Z,23.40
2018-02-17T06:38:10.758Z,21.58
2018-02-17T06:40:38.923Z,21.70
2018-02-17T06:43:07.096Z,24.35
2018-02-17T06:45:35.174Z,21.40
2018-02-17T06:48:03.259Z,23.50
2018-02-17T06:50:31.439Z,21.17
2018-02-17T06:52:59.502Z,22.50
2018-02-17T06:55:27.562Z,22.25
2018-02-17T06:57:55.630Z,22.07
2018-02-17T07:00:23.734Z,24.17
2018-02-17T07:02:53.244Z,22.87
2018-02-17T07:05:21.319Z,22.95
2018-02-17T07:07:49.394Z,22.23
2018-02-17T07:10:17.466Z,21.05
2018-02-17T07:12:45.550Z,20.50
2018-02-17T07:15:13.606Z,20.20
2018-02-17T07:17:41.678Z,22.60
2018-02-17T07:20:09.745Z,18.23
2018-02-17T07:22:37.869Z,20.50
2018-02-17T07:25:05.964Z,20.43
2018-02-17T07:27:34.858Z,21.50
2018-02-17T07:30:03.002Z,22.30
2018-02-17T07:32:31.118Z,24.80
2018-02-17T07:35:00.031Z,22.83
2018-02-17T07:37:28.115Z,25.60
2018-02-17T07:39:56.229Z,21.15
2018-02-17T07:42:24.406Z,22.80
2018-02-17T07:44:52.475Z,21.90
2018-02-17T07:47:20.575Z,21.90
2018-02-17T07:49:48.630Z,19.47
2018-02-17T07:52:16.683Z,18.60
2018-02-17T07:54:44.752Z,18.97
2018-02-17T07:57:12.830Z,19.90
2018-02-17T07:59:41.568Z,17.73
2018-02-17T08:02:09.641Z,19.30
2018-02-17T08:04:37.809Z,18.80
2018-02-17T08:07:05.862Z,18.05
2018-02-17T08:09:33.930Z,20.37
2018-02-17T08:12:02.047Z,20.17
2018-02-17T08:14:30.123Z,18.97
2018-02-17T08:16:58.178Z,19.35
2018-02-17T08:19:26.250Z,14.40
2018-02-17T08:21:54.362Z,23.73
2018-02-17T08:24:22.430Z,18.70
2018-02-17T08:26:53.141Z,19.90
2018-02-17T08:29:21.226Z,20.48
2018-02-17T08:31:49.309Z,21.20
2018-02-17T08:34:17.490Z,17.50
2018-02-17T08:36:45.658Z,18.00
2018-02-17T08:39:13.734Z,17.10
2018-02-17T08:41:42.051Z,15.65
2018-02-17T08:44:10.110Z,13.80
2018-02-17T08:46:38.186Z,14.83
2018-02-17T08:49:06.246Z,14.40
2018-02-17T08:51:34.330Z,13.93
2018-02-17T08:54:02.390Z,15.00
2018-02-17T08:56:30.863Z,13.63
2018-02-17T08:58:58.920Z,12.67
2018-02-17T09:01:27.767Z,13.35
2018-02-17T09:03:55.826Z,13.00
2018-02-17T09:06:23.890Z,11.53
2018-02-17T09:08:52.506Z,11.63
2018-02-17T09:11:20.574Z,12.40
2018-02-17T09:13:48.766Z,11.90
2018-02-17T09:16:16.829Z,12.80
2018-02-17T09:18:45.497Z,11.97
2018-02-17T09:21:13.615Z,11.40
2018-02-17T09:23:42.409Z,11.43
2018-02-17T09:26:10.469Z,11.60
2018-02-17T09:28:38.521Z,9.17
2018-02-17T09:31:07.451Z,11.60
2018-02-17T09:33:35.514Z,9.80
2018-02-17T09:36:03.601Z,10.50
2018-02-17T09:38:31.654Z,9.70
2018-02-17T09:40:59.782Z,10.52
2018-02-17T09:43:28.606Z,9.77
2018-02-17T09:45:56.666Z,10.55
2018-02-17T09:48:24.726Z,10.70
2018-02-17T09:50:53.547Z,9.90
2018-02-17T09:53:21.650Z,8.73
2018-02-17T09:55:49.842Z,9.60
2018-02-17T09:58:18.068Z,9.50
2018-02-17T10:00:46.902Z,9.67
2018-02-17T10:03:14.998Z,8.70
2018-02-17T10:05:43.050Z,9.17
2018-02-17T10:08:11.122Z,6.97
2018-02-17T10:10:39.185Z,11.77
2018-02-17T10:13:07.291Z,9.43
2018-02-17T10:15:35.338Z,9.57
2018-02-17T10:18:03.406Z,9.37
2018-02-17T10:20:32.243Z,9.27
2018-02-17T10:23:00.328Z,7.80
2018-02-17T10:25:28.391Z,9.55
2018-02-17T10:27:56.462Z,7.90
2018-02-17T10:30:24.519Z,8.90
2018-02-17T10:32:52.692Z,9.17
2018-02-17T10:35:20.798Z,8.80
2018-02-17T10:37:48.863Z,9.50
2018-02-17T10:40:17.165Z,10.73
2018-02-17T10:42:45.213Z,8.70
2018-02-17T10:45:13.277Z,8.37
2018-02-17T10:47:41.407Z,8.40
2018-02-17T10:50:09.484Z,9.23
2018-02-17T10:52:37.559Z,9.00
2018-02-17T10:55:05.627Z,8.53
2018-02-17T10:57:33.699Z,9.17
2018-02-17T11:00:01.782Z,7.40
2018-02-17T11:02:29.951Z,8.30
2018-02-17T11:04:58.035Z,8.00
2018-02-17T11:07:26.214Z,7.30
2018-02-17T11:09:54.286Z,7.70
2018-02-17T11:12:22.458Z,8.07
2018-02-17T11:14:50.538Z,7.07
2018-02-17T11:17:18.625Z,6.97
2018-02-17T11:19:46.675Z,8.00
2018-02-17T11:22:14.733Z,6.80
2018-02-17T11:24:43.763Z,7.50
2018-02-17T11:27:12.066Z,7.60
2018-02-17T11:29:40.130Z,8.17
2018-02-17T11:32:08.214Z,8.55
2018-02-17T11:34:36.426Z,8.33
2018-02-17T11:37:05.261Z,9.67
2018-02-17T11:39:33.310Z,9.90
2018-02-17T11:42:01.387Z,10.43
2018-02-17T11:44:29.447Z,10.15
2018-02-17T11:46:58.287Z,9.93
2018-02-17T11:49:26.340Z,10.40
2018-02-17T11:51:54.432Z,9.32
2018-02-17T11:54:22.475Z,11.52
2018-02-17T11:56:50.628Z,10.77
2018-02-17T11:59:19.449Z,12.15
2018-02-17T12:01:47.628Z,11.67
2018-02-17T12:04:15.760Z,13.63
2018-02-17T12:06:44.253Z,15.85
2018-02-17T12:09:12.416Z,13.32
2018-02-17T12:11:40.466Z,12.50
2018-02-17T12:14:08.534Z,13.45
2018-02-17T12:16:36.586Z,13.60
2018-02-17T12:19:05.439Z,12.37
2018-02-17T12:21:33.494Z,14.32
2018-02-17T12:24:02.098Z,13.93
2018-02-17T12:26:30.161Z,14.60
2018-02-17T12:28:58.226Z,13.27
2018-02-17T12:31:26.328Z,12.43
2018-02-17T12:33:54.395Z,12.67
2018-02-17T12:36:22.446Z,11.82
2018-02-17T12:38:51.174Z,12.00
2018-02-17T12:41:19.247Z,14.60
2018-02-17T12:43:47.415Z,13.27
2018-02-17T12:46:15.466Z,12.05
2018-02-17T12:48:44.650Z,12.80
2018-02-17T12:51:13.706Z,13.07
2018-02-17T12:53:41.878Z,13.55
2018-02-17T12:56:09.934Z,15.25
2018-02-17T12:58:38.033Z,14.97
2018-02-17T13:01:06.094Z,12.65
2018-02-17T13:03:34.186Z,14.37
2018-02-17T13:06:02.908Z,13.73
2018-02-17T13:08:31.731Z,15.00
2018-02-17T13:10:59.795Z,12.70
2018-02-17T13:13:28.644Z,12.60
2018-02-17T13:15:56.710Z,14.43
2018-02-17T13:18:24.790Z,13.70
2018-02-17T13:20:52.873Z,12.80
2018-02-17T13:23:20.940Z,13.13
2018-02-17T13:25:48.997Z,13.03
2018-02-17T13:28:26.615Z,12.83
2018-02-17T13:30:54.680Z,11.93
2018-02-17T13:33:22.756Z,11.90
2018-02-17T13:35:50.807Z,12.93
2018-02-17T13:38:18.880Z,10.50
2018-02-17T13:40:46.938Z,12.83
2018-02-17T13:43:15.499Z,11.35
2018-02-17T13:45:46.182Z,10.83
2018-02-17T13:48:15.386Z,12.47
2018-02-17T13:50:43.448Z,12.10
2018-02-17T13:53:12.297Z,11.50
2018-02-17T13:55:40.368Z,9.70
2018-02-17T13:58:08.562Z,10.48
2018-02-17T14:00:38.125Z,10.48
2018-02-17T14:03:06.194Z,11.85
2018-02-17T14:05:34.253Z,9.35
2018-02-17T14:08:03.118Z,11.02
2018-02-17T14:10:31.182Z,10.90
2018-02-17T14:12:59.365Z,10.85
2018-02-17T14:15:27.422Z,11.68
2018-02-17T14:17:55.514Z,11.00
2018-02-17T14:20:23.582Z,9.50
2018-02-17T14:22:52.479Z,12.20
2018-02-17T14:25:20.551Z,10.70
2018-02-17T14:27:48.634Z,10.97
2018-02-17T14:30:16.706Z,12.00
2018-02-17T14:32:44.834Z,12.20
2018-02-17T14:35:13.658Z,15.03
2018-02-17T14:37:41.726Z,12.77
2018-02-17T14:40:09.837Z,12.60
2018-02-17T14:42:37.908Z,11.70
2018-02-17T14:45:05.973Z,13.30
2018-02-17T14:47:34.060Z,12.30
2018-02-17T14:50:02.179Z,13.05
2018-02-17T14:52:30.999Z,13.05
2018-02-17T14:54:59.151Z,11.77
2018-02-17T14:57:28.579Z,12.60
2018-02-17T14:59:56.654Z,11.65
2018-02-17T15:02:24.767Z,12.77
2018-02-17T15:04:52.830Z,13.53
2018-02-17T15:07:20.886Z,15.80
2018-02-17T15:09:49.655Z,18.27
2018-02-17T15:12:18.483Z,17.60
2018-02-17T15:14:46.790Z,16.80
2018-02-17T15:17:14.866Z,19.07
2018-02-17T15:19:42.953Z,17.47
2018-02-17T15:22:11.003Z,14.67
2018-02-17T15:24:39.098Z,12.03
2018-02-17T15:27:07.138Z,11.68
2018-02-17T15:29:35.210Z,10.48
2018-02-17T15:32:03.270Z,10.30
2018-02-17T15:34:32.111Z,12.70
2018-02-17T15:37:00.195Z,11.30
2018-02-17T15:39:28.264Z,10.45
2018-02-17T15:41:56.318Z,12.80
2018-02-17T15:44:24.382Z,11.15
2018-02-17T15:46:52.446Z,10.87
2018-02-17T15:49:20.536Z,11.50
2018-02-17T15:51:48.590Z,10.70
2018-02-17T15:54:17.239Z,9.95
2018-02-17T15:56:45.279Z,9.00
2018-02-17T15:59:13.347Z,9.82
2018-02-17T16:01:41.458Z,10.70
2018-02-17T16:04:09.527Z,10.27
2018-02-17T16:06:37.582Z,8.57
2018-02-17T16:09:05.658Z,7.87
2018-02-17T16:11:33.727Z,8.93
2018-02-17T16:14:02.538Z,8.77
2018-02-17T16:16:30.590Z,9.27
2018-02-17T16:18:58.647Z,8.32
2018-02-17T16:21:27.474Z,9.40
2018-02-17T16:23:55.582Z,9.15
2018-02-17T16:26:23.628Z,10.73
2018-02-17T16:28:52.374Z,9.07
2018-02-17T16:31:20.907Z,8.90
2018-02-17T16:33:49.008Z,10.43
2018-02-17T16:36:17.723Z,8.90
2018-02-17T16:38:45.796Z,10.00
2018-02-17T16:41:13.852Z,9.90
2018-02-17T16:43:41.914Z,10.70
2018-02-17T16:46:09.978Z,10.32
2018-02-17T16:48:38.042Z,10.70
2018-02-17T16:51:06.099Z,9.13
2018-02-17T16:53:34.159Z,10.07
2018-02-17T16:56:02.225Z,10.63
2018-02-17T16:58:30.297Z,11.43
2018-02-17T17:00:58.350Z,10.52
2018-02-17T17:03:26.442Z,11.50
2018-02-17T17:05:54.518Z,13.03
2018-02-17T17:08:22.583Z,11.23
2018-02-17T17:10:50.655Z,13.70
2018-02-17T17:13:18.718Z,12.70
2018-02-17T17:15:46.783Z,12.50
2018-02-17T17:18:15.484Z,11.63
2018-02-17T17:20:43.595Z,13.83
2018-02-17T17:23:11.658Z,13.33
2018-02-17T17:25:39.731Z,13.40
2018-02-17T17:28:07.801Z,13.23
2018-02-17T17:30:35.890Z,14.30
2018-02-17T17:33:03.951Z,12.77
2018-02-17T17:35:32.040Z,14.17
2018-02-17T17:38:00.090Z,13.80
2018-02-17T17:40:28.202Z,13.27
2018-02-17T17:42:56.291Z,13.70
2018-02-17T17:45:24.359Z,13.20
2018-02-17T17:47:52.774Z,15.77
2018-02-17T17:50:21.701Z,13.27
2018-02-17T17:52:49.791Z,13.83
2018-02-17T17:55:19.394Z,16.17
2018-02-17T17:57:48.608Z,14.03
2018-02-17T18:00:16.698Z,13.63
2018-02-17T18:02:44.767Z,14.55
2018-02-17T18:05:12.823Z,16.00
2018-02-17T18:07:40.934Z,15.17
2018-02-17T18:10:09.014Z,14.38
2018-02-17T18:12:37.076Z,15.40
2018-02-17T18:15:05.158Z,14.43
2018-02-17T18:17:33.243Z,15.65
2018-02-17T18:20:01.314Z,14.85
2018-02-17T18:22:29.557Z,16.98
2018-02-17T18:24:57.614Z,16.03
2018-02-17T18:27:26.468Z,14.63
2018-02-17T18:29:54.536Z,13.73
2018-02-17T18:32:22.655Z,13.87
2018-02-17T18:34:50.686Z,13.00
2018-02-17T18:37:19.324Z,14.70
2018-02-17T18:39:49.266Z,15.10
2018-02-17T18:42:17.335Z,17.70
2018-02-17T18:44:45.398Z,15.17
2018-02-17T18:47:14.222Z,14.70
2018-02-17T18:49:42.294Z,16.27
2018-02-17T18:52:10.363Z,16.87
2018-02-17T18:54:38.470Z,16.30
2018-02-17T18:57:06.550Z,33.30
2018-02-17T18:59:34.646Z,41.13
2018-02-17T19:02:02.718Z,17.02
2018-02-17T19:04:30.790Z,19.20
2018-02-17T19:06:59.620Z,20.23
2018-02-17T19:09:29.265Z,18.40
2018-02-17T19:11:57.333Z,18.70
2018-02-17T19:14:25.409Z,18.08
2018-02-17T19:16:53.549Z,17.80
2018-02-17T19:19:22.411Z,19.17
2018-02-17T19:21:50.481Z,19.67
2018-02-17T19:24:19.674Z,23.60
2018-02-17T19:26:47.730Z,19.05
2018-02-17T19:29:15.821Z,17.97
2018-02-17T19:31:43.894Z,18.85
2018-02-17T19:34:11.954Z,19.23
2018-02-17T19:36:40.064Z,19.03
2018-02-17T19:39:08.138Z,17.40
2018-02-17T19:41:36.289Z,20.00
2018-02-17T19:44:04.343Z,18.08
2018-02-17T19:46:33.180Z,16.50
2018-02-17T19:49:01.238Z,17.90
2018-02-17T19:51:29.351Z,19.20
2018-02-17T19:53:57.488Z,17.43
2018-02-17T19:56:25.562Z,18.80
2018-02-17T19:58:53.617Z,18.33
2018-02-17T20:01:22.454Z,16.23
2018-02-17T20:03:50.516Z,18.57
2018-02-17T20:06:18.603Z,16.43
2018-02-17T20:08:46.662Z,18.60
2018-02-17T20:11:14.777Z,18.50
2018-02-17T20:13:42.915Z,17.50
2018-02-17T20:16:11.755Z,19.60
2018-02-17T20:18:39.811Z,18.90
2018-02-17T20:21:07.890Z,20.85
2018-02-17T20:23:35.960Z,18.70
2018-02-17T20:26:04.022Z,20.83
2018-02-17T20:28:32.130Z,20.70
2018-02-17T20:31:00.202Z,22.63
2018-02-17T20:33:28.386Z,19.65
2018-02-17T20:35:56.467Z,20.00
2018-02-17T20:38:24.634Z,18.17
2018-02-17T20:40:52.819Z,21.20
2018-02-17T20:43:20.941Z,20.37
2018-02-17T20:45:50.890Z,20.00
2018-02-17T20:48:18.953Z,19.90
2018-02-17T20:50:47.029Z,18.30
2018-02-17T20:53:15.080Z,19.70
2018-02-17T20:55:43.915Z,18.57
2018-02-17T20:58:11.967Z,20.20
2018-02-17T21:00:40.027Z,20.50
2018-02-17T21:03:08.855Z,19.00
2018-02-17T21:05:37.013Z,20.62
2018-02-17T21:08:05.029Z,20.05
2018-02-17T21:10:33.105Z,18.20
2018-02-17T21:13:01.196Z,19.58
2018-02-17T21:15:29.279Z,17.73
2018-02-17T21:17:57.341Z,17.73
2018-02-17T21:20:25.517Z,20.45
2018-02-17T21:22:53.578Z,20.30
2018-02-17T21:25:21.666Z,20.60
2018-02-17T21:27:49.721Z,20.10
2018-02-17T21:30:17.797Z,18.00
2018-02-17T21:32:45.858Z,17.03
2018-02-17T21:35:13.968Z,18.97
2018-02-17T21:37:42.050Z,19.77
2018-02-17T21:40:10.122Z,16.58
2018-02-17T21:42:38.203Z,19.23
2018-02-17T21:45:06.370Z,21.20
2018-02-17T21:47:34.426Z,21.80
2018-02-17T21:50:02.500Z,20.33
2018-02-17T21:52:30.607Z,18.92
2018-02-17T21:54:58.786Z,17.60
2018-02-17T21:57:26.881Z,18.47
2018-02-17T21:59:54.937Z,18.93
2018-02-17T22:02:23.006Z,18.53
2018-02-17T22:04:53.650Z,21.23
2018-02-17T22:07:22.658Z,21.50
2018-02-17T22:09:51.839Z,18.52
2018-02-17T22:12:19.901Z,18.23
2018-02-17T22:14:47.978Z,20.10
2018-02-17T22:17:16.055Z,18.23
2018-02-17T22:19:44.130Z,19.50
2018-02-17T22:22:12.218Z,19.07
2018-02-17T22:24:40.281Z,19.10
2018-02-17T22:27:08.382Z,18.90
2018-02-17T22:29:36.471Z,18.42
2018-02-17T22:32:05.309Z,17.97
2018-02-17T22:34:34.126Z,20.03
2018-02-17T22:37:02.189Z,18.27
2018-02-17T22:39:30.298Z,19.07
2018-02-17T22:41:58.363Z,16.50
2018-02-17T22:44:26.419Z,18.58
2018-02-17T22:46:54.509Z,19.70
2018-02-17T22:49:22.575Z,17.43
2018-02-17T22:51:50.637Z,18.37
2018-02-17T22:54:18.690Z,19.83
2018-02-17T22:56:47.526Z,17.63
2018-02-17T22:59:15.585Z,18.60
2018-02-17T23:01:43.671Z,17.87
2018-02-17T23:04:11.742Z,19.17
2018-02-17T23:06:39.866Z,18.48
2018-02-17T23:09:07.934Z,18.53
2018-02-17T23:11:36.102Z,21.27
2018-02-17T23:14:04.186Z,20.83
2018-02-17T23:16:32.254Z,21.60
2018-02-17T23:19:00.319Z,19.80
2018-02-17T23:21:28.398Z,20.40
2018-02-17T23:23:56.458Z,21.17
2018-02-17T23:26:24.538Z,21.27
2018-02-17T23:28:54.144Z,20.70
2018-02-17T23:31:22.602Z,21.48
2018-02-17T23:33:50.655Z,20.40
2018-02-17T23:36:18.824Z,22.93
2018-02-17T23:38:46.894Z,21.60
2018-02-17T23:41:14.971Z,19.83
2018-02-17T23:43:43.042Z,20.50
2018-02-17T23:46:11.112Z,21.57
2018-02-17T23:48:39.197Z,22.83
2018-02-17T23:51:07.274Z,21.60
2018-02-17T23:53:36.115Z,25.65
2018-02-17T23:56:04.946Z,23.90
2018-02-17T23:58:33.015Z,21.63
